createdAt,value
2022-11-28T00:01:26.284Z,42.13
2022-11-28T00:03:53.123Z,38.80
2022-11-28T00:06:20.827Z,38.40
2022-11-28T00:08:47.694Z,41.72
2022-11-28T00:11:16.503Z,36.35
2022-11-28T00:13:44.293Z,39.03
2022-11-28T00:16:16.090Z,33.47
2022-11-28T00:18:43.113Z,33.08
2022-11-28T00:21:12.734Z,33.53
2022-11-28T00:23:39.559Z,37.05
2022-11-28T00:26:12.888Z,34.25
2022-11-28T00:28:39.457Z,35.38
2022-11-28T00:31:06.462Z,31.25
2022-11-28T00:33:33.764Z,36.22
2022-11-28T00:36:02.468Z,34.28
2022-11-28T00:38:29.914Z,34.55
2022-11-28T00:41:04.432Z,35.72
2022-11-28T00:43:31.401Z,37.83
2022-11-28T00:45:57.876Z,34.15
2022-11-28T00:48:25.676Z,32.92
2022-11-28T00:50:53.021Z,29.40
2022-11-28T00:53:19.869Z,30.88
2022-11-28T00:55:46.547Z,33.30
2022-11-28T00:58:13.358Z,30.88
2022-11-28T01:00:39.998Z,35.42
2022-11-28T01:03:06.596Z,31.77
2022-11-28T01:05:33.166Z,33.30
2022-11-28T01:07:59.781Z,31.25
2022-11-28T01:10:27.233Z,32.22
2022-11-28T01:12:53.965Z,30.00
2022-11-28T01:15:20.529Z,32.38
2022-11-28T01:17:47.066Z,29.15
2022-11-28T01:20:13.944Z,28.55
2022-11-28T01:22:40.557Z,30.30
2022-11-28T01:25:07.490Z,30.63
2022-11-28T01:27:34.048Z,27.10
2022-11-28T01:30:00.573Z,30.50
2022-11-28T01:32:27.270Z,31.38
2022-11-28T01:34:53.785Z,36.35
2022-11-28T01:37:20.319Z,32.45
2022-11-28T01:39:46.931Z,35.60
2022-11-28T01:42:19.181Z,37.72
2022-11-28T01:44:48.810Z,35.50
2022-11-28T01:47:29.482Z,36.22
2022-11-28T01:49:56.367Z,35.45
2022-11-28T01:52:23.844Z,31.70
2022-11-28T01:54:59.806Z,38.88
2022-11-28T01:57:28.003Z,36.85
2022-11-28T02:00:05.498Z,34.45
2022-11-28T02:02:48.388Z,36.85
2022-11-28T02:05:16.929Z,33.45
2022-11-28T02:07:44.563Z,35.58
2022-11-28T02:10:15.150Z,33.38
2022-11-28T02:12:54.412Z,34.78
2022-11-28T02:15:43.340Z,38.17
2022-11-28T02:18:54.450Z,34.42
2022-11-28T02:21:50.702Z,36.75
2022-11-28T02:24:31.772Z,33.88
2022-11-28T02:27:04.482Z,37.92
2022-11-28T02:29:46.321Z,36.40
2022-11-28T02:32:22.216Z,31.77
2022-11-28T02:35:20.471Z,36.70
2022-11-28T02:37:59.033Z,33.90
2022-11-28T02:40:34.706Z,35.50
2022-11-28T02:43:10.341Z,35.00
2022-11-28T02:46:20.504Z,33.08
2022-11-28T02:48:55.023Z,35.83
2022-11-28T02:51:42.074Z,38.03
2022-11-28T02:54:12.068Z,38.22
2022-11-28T02:56:39.083Z,37.20
2022-11-28T02:59:47.027Z,39.05
2022-11-28T03:02:27.733Z,36.67
2022-11-28T03:05:13.154Z,36.55
2022-11-28T03:07:54.966Z,38.63
2022-11-28T03:10:40.662Z,40.53
2022-11-28T03:13:22.886Z,47.63
2022-11-28T03:16:11.321Z,37.72
2022-11-28T03:19:13.955Z,38.28
2022-11-28T03:21:47.292Z,39.75
2022-11-28T03:24:25.640Z,42.85
2022-11-28T03:27:06.176Z,39.33
2022-11-28T03:29:46.519Z,39.05
2022-11-28T03:32:22.381Z,36.28
2022-11-28T03:34:56.051Z,38.95
2022-11-28T03:40:00.159Z,38.22
2022-11-28T03:42:31.627Z,41.63
2022-11-28T03:45:13.118Z,38.53
2022-11-28T03:47:44.918Z,38.97
2022-11-28T03:50:18.041Z,39.05
2022-11-28T03:52:52.990Z,39.78
2022-11-28T03:55:34.948Z,43.45
2022-11-28T03:58:12.443Z,38.80
2022-11-28T04:00:51.443Z,40.55
2022-11-28T04:03:30.660Z,39.42
2022-11-28T04:06:05.550Z,38.95
2022-11-28T04:08:56.474Z,37.60
2022-11-28T04:11:29.001Z,36.53
2022-11-28T04:14:05.987Z,36.35
2022-11-28T04:17:09.666Z,39.42
2022-11-28T04:19:58.544Z,36.38
2022-11-28T04:22:30.832Z,41.17
2022-11-28T04:25:13.878Z,40.15
2022-11-28T04:28:14.620Z,39.73
2022-11-28T04:30:43.421Z,36.63
2022-11-28T04:33:13.540Z,34.65
2022-11-28T04:35:45.380Z,39.60
2022-11-28T04:38:13.114Z,39.05
2022-11-28T04:40:48.396Z,34.53
2022-11-28T04:43:28.428Z,37.35
2022-11-28T04:46:01.523Z,38.38
2022-11-28T04:48:33.967Z,38.47
2022-11-28T04:51:22.620Z,38.60
2022-11-28T04:54:04.682Z,39.28
2022-11-28T04:56:37.723Z,39.65
2022-11-28T04:59:06.439Z,36.33
2022-11-28T05:01:34.683Z,39.83
2022-11-28T05:05:12.073Z,40.53
2022-11-28T05:08:45.886Z,36.72
2022-11-28T05:14:53.227Z,38.53
2022-11-28T05:17:22.839Z,37.28
2022-11-28T05:19:56.784Z,40.22
2022-11-28T05:22:23.600Z,38.47
2022-11-28T05:24:50.465Z,39.85
2022-11-28T05:27:17.543Z,38.58
2022-11-28T05:29:51.918Z,39.30
2022-11-28T05:32:19.090Z,38.72
2022-11-28T05:34:45.641Z,39.78
2022-11-28T05:37:12.218Z,40.47
2022-11-28T05:39:38.945Z,38.60
2022-11-28T05:42:07.175Z,40.10
2022-11-28T05:44:33.923Z,40.30
2022-11-28T05:47:00.481Z,37.63
2022-11-28T05:49:28.787Z,38.15
2022-11-28T05:51:55.340Z,37.70
2022-11-28T05:54:21.953Z,37.47
2022-11-28T05:56:48.609Z,38.65
2022-11-28T05:59:15.123Z,39.10
2022-11-28T06:01:41.749Z,39.58
2022-11-28T06:04:08.465Z,48.03
2022-11-28T06:06:35.871Z,40.08
2022-11-28T06:09:02.673Z,38.70
2022-11-28T06:11:31.517Z,38.70
2022-11-28T06:13:58.120Z,35.75
2022-11-28T06:16:30.009Z,38.95
2022-11-28T06:18:58.950Z,38.15
2022-11-28T06:21:26.232Z,36.92
2022-11-28T06:23:53.549Z,37.83
2022-11-28T06:26:23.047Z,38.45
2022-11-28T06:28:50.292Z,41.00
2022-11-28T06:31:22.732Z,47.45
2022-11-28T06:33:49.952Z,37.95
2022-11-28T06:36:18.279Z,40.08
2022-11-28T06:38:44.845Z,32.97
2022-11-28T06:41:14.226Z,37.78
2022-11-28T06:43:41.261Z,36.70
2022-11-28T06:46:20.317Z,38.28
2022-11-28T06:48:48.491Z,39.58
2022-11-28T06:51:15.247Z,45.00
2022-11-28T06:53:42.110Z,42.03
2022-11-28T06:56:14.619Z,40.10
2022-11-28T06:58:42.500Z,39.65
2022-11-28T07:01:12.334Z,37.53
2022-11-28T07:03:39.591Z,40.92
2022-11-28T07:06:07.419Z,38.38
2022-11-28T07:08:34.494Z,38.35
2022-11-28T07:11:13.717Z,37.45
2022-11-28T07:13:41.286Z,36.47
2022-11-28T07:16:08.738Z,33.08
2022-11-28T07:18:35.314Z,35.67
2022-11-28T07:21:01.959Z,35.28
2022-11-28T07:23:28.445Z,39.35
2022-11-28T07:26:02.722Z,36.50
2022-11-28T07:28:31.295Z,35.33
2022-11-28T07:31:00.479Z,35.90
2022-11-28T07:33:27.144Z,35.95
2022-11-28T07:35:53.656Z,36.35
2022-11-28T07:38:20.148Z,35.80
2022-11-28T07:40:46.646Z,37.53
2022-11-28T07:43:13.176Z,37.72
2022-11-28T07:45:59.548Z,38.22
2022-11-28T07:48:26.497Z,36.30
2022-11-28T07:50:53.021Z,37.67
2022-11-28T07:53:19.725Z,34.50
2022-11-28T07:55:46.282Z,35.65
2022-11-28T07:58:12.791Z,34.95
2022-11-28T08:00:39.894Z,34.83
2022-11-28T08:03:06.589Z,33.28
2022-11-28T08:05:33.698Z,35.08
2022-11-28T08:08:00.336Z,32.85
2022-11-28T08:10:26.945Z,34.13
2022-11-28T08:12:53.464Z,39.20
2022-11-28T08:15:20.349Z,34.47
2022-11-28T08:17:46.969Z,35.95
2022-11-28T08:20:13.633Z,35.10
2022-11-28T08:22:40.533Z,34.67
2022-11-28T08:25:07.303Z,35.78
2022-11-28T08:27:33.950Z,34.53
2022-11-28T08:30:00.459Z,34.20
2022-11-28T08:32:29.444Z,36.20
2022-11-28T08:34:55.946Z,35.22
2022-11-28T08:37:22.481Z,35.80
2022-11-28T08:39:48.983Z,34.97
2022-11-28T08:42:15.488Z,36.25
2022-11-28T08:44:41.990Z,33.53
2022-11-28T08:47:08.835Z,36.88
2022-11-28T08:49:37.127Z,32.22
2022-11-28T08:52:04.462Z,32.45
2022-11-28T08:54:31.224Z,32.22
2022-11-28T08:56:58.970Z,35.72
2022-11-28T08:59:25.734Z,37.15
2022-11-28T09:01:53.739Z,34.30
2022-11-28T09:04:21.275Z,33.75
2022-11-28T09:06:47.919Z,32.17
2022-11-28T09:09:14.433Z,33.30
2022-11-28T09:11:41.698Z,32.70
2022-11-28T09:14:09.060Z,31.60
2022-11-28T09:16:35.697Z,32.10
2022-11-28T09:19:02.238Z,36.33
2022-11-28T09:21:28.806Z,32.47
2022-11-28T09:23:56.330Z,33.03
2022-11-28T09:26:25.162Z,32.00
2022-11-28T09:28:52.465Z,43.40
2022-11-28T09:31:19.796Z,32.13
2022-11-28T09:33:47.140Z,31.98
2022-11-28T09:36:16.874Z,30.27
2022-11-28T09:38:44.002Z,29.75
2022-11-28T09:41:36.591Z,31.45
2022-11-28T09:44:27.472Z,32.47
2022-11-28T09:46:59.205Z,33.45
2022-11-28T09:49:40.384Z,37.42
2022-11-28T09:52:38.703Z,28.95
2022-11-28T09:55:14.434Z,30.55
2022-11-28T09:57:45.943Z,30.25
2022-11-28T10:00:21.516Z,30.27
2022-11-28T10:03:30.483Z,31.85
2022-11-28T10:06:15.485Z,30.15
2022-11-28T10:09:02.253Z,31.48
2022-11-28T10:11:44.216Z,28.75
2022-11-28T10:14:13.855Z,28.27
2022-11-28T10:17:19.692Z,28.95
2022-11-28T10:19:54.694Z,31.30
2022-11-28T10:22:46.574Z,30.05
2022-11-28T10:25:16.135Z,31.73
2022-11-28T10:27:42.829Z,30.02
2022-11-28T10:30:21.879Z,31.73
2022-11-28T10:33:00.618Z,30.00
2022-11-28T10:35:44.002Z,29.98
2022-11-28T10:38:15.537Z,54.00
2022-11-28T10:41:04.801Z,71.63
2022-11-28T10:44:05.048Z,46.58
2022-11-28T10:46:43.660Z,30.88
2022-11-28T10:49:50.317Z,31.15
2022-11-28T10:52:34.730Z,29.35
2022-11-28T10:55:01.202Z,30.40
2022-11-28T11:00:45.698Z,31.80
2022-11-28T11:03:17.358Z,26.80
2022-11-28T11:05:44.157Z,36.28
2022-11-28T11:08:33.714Z,36.28
2022-11-28T11:11:15.207Z,33.55
2022-11-28T11:14:01.459Z,26.67
2022-11-28T11:16:49.137Z,35.92
2022-11-28T11:19:36.325Z,28.35
2022-11-28T11:22:28.539Z,26.85
2022-11-28T11:25:15.645Z,32.05
2022-11-28T11:28:04.473Z,54.92
2022-11-28T11:30:38.722Z,31.98
2022-11-28T11:33:12.360Z,27.15
2022-11-28T11:35:45.293Z,25.63
2022-11-28T11:38:30.316Z,24.45
2022-11-28T11:41:20.469Z,26.02
2022-11-28T11:43:47.235Z,25.35
2022-11-28T11:46:15.630Z,25.85
2022-11-28T11:48:46.752Z,25.25
2022-11-28T11:51:24.019Z,23.20
2022-11-28T11:54:12.580Z,23.35
2022-11-28T11:56:44.130Z,24.73
2022-11-28T11:59:18.492Z,23.80
2022-11-28T12:01:47.005Z,24.92
2022-11-28T12:04:44.002Z,23.17
2022-11-28T12:07:18.461Z,23.60
2022-11-28T12:09:48.199Z,26.23
2022-11-28T12:12:22.234Z,26.10
2022-11-28T12:14:50.367Z,26.92
2022-11-28T12:17:48.840Z,28.17
2022-11-28T12:20:42.749Z,25.00
2022-11-28T12:23:53.955Z,27.88
2022-11-28T12:26:51.819Z,26.83
2022-11-28T12:29:27.781Z,26.25
2022-11-28T12:32:03.127Z,24.90
2022-11-28T12:34:57.523Z,24.20
2022-11-28T12:40:55.320Z,25.17
2022-11-28T12:43:34.411Z,24.33
2022-11-28T12:46:10.236Z,25.50
2022-11-28T12:49:10.267Z,25.95
2022-11-28T12:51:42.507Z,23.55
2022-11-28T12:54:30.602Z,25.67
2022-11-28T12:57:21.383Z,24.95
2022-11-28T13:00:14.805Z,25.52
2022-11-28T13:03:19.133Z,24.60
2022-11-28T13:06:11.967Z,26.20
2022-11-28T13:08:52.075Z,25.40
2022-11-28T13:11:56.237Z,24.30
2022-11-28T13:14:54.388Z,27.52
2022-11-28T13:17:41.173Z,38.40
2022-11-28T13:20:18.792Z,34.30
2022-11-28T13:23:00.764Z,28.85
2022-11-28T13:25:33.348Z,24.70
2022-11-28T13:31:42.687Z,21.80
2022-11-28T13:34:16.184Z,22.15
2022-11-28T13:39:46.250Z,26.83
2022-11-28T13:43:02.889Z,20.70
2022-11-28T13:45:34.327Z,21.05
2022-11-28T13:51:33.434Z,29.83
2022-11-28T13:54:21.562Z,20.83
2022-11-28T13:57:05.055Z,20.10
2022-11-28T13:59:33.253Z,29.15
2022-11-28T14:02:02.200Z,56.88
2022-11-28T14:04:32.139Z,25.00
2022-11-28T14:07:06.734Z,20.75
2022-11-28T14:09:47.542Z,21.67
2022-11-28T14:12:35.743Z,23.42
2022-11-28T14:15:02.332Z,28.75
2022-11-28T14:17:40.650Z,20.92
2022-11-28T14:20:45.000Z,17.45
2022-11-28T14:23:18.235Z,23.80
2022-11-28T14:25:48.332Z,22.27
2022-11-28T14:28:36.853Z,22.70
2022-11-28T14:31:24.499Z,21.55
2022-11-28T14:33:57.598Z,20.63
2022-11-28T14:36:30.504Z,22.08
2022-11-28T14:39:10.716Z,23.30
2022-11-28T14:42:05.275Z,21.17
2022-11-28T14:44:47.207Z,21.77
2022-11-28T14:47:18.430Z,22.95
2022-11-28T14:49:44.964Z,23.17
2022-11-28T14:52:38.326Z,23.98
2022-11-28T14:55:12.232Z,24.05
2022-11-28T14:57:56.773Z,25.75
2022-11-28T15:00:38.337Z,24.23
2022-11-28T15:03:47.583Z,27.42
2022-11-28T15:06:20.743Z,27.15
2022-11-28T15:08:56.351Z,24.25
2022-11-28T15:11:37.676Z,23.63
2022-11-28T15:14:23.853Z,23.80
2022-11-28T15:16:54.556Z,27.00
2022-11-28T15:19:26.594Z,26.10
2022-11-28T15:21:54.908Z,26.60
2022-11-28T15:24:36.619Z,23.38
2022-11-28T15:27:08.870Z,21.55
2022-11-28T15:29:36.842Z,22.77
2022-11-28T15:32:04.903Z,24.48
2022-11-28T15:34:35.255Z,23.63
2022-11-28T15:37:15.007Z,25.40
2022-11-28T15:39:42.760Z,24.33
2022-11-28T15:42:20.997Z,27.58
2022-11-28T15:44:49.535Z,24.15
2022-11-28T15:47:21.177Z,25.10
2022-11-28T15:50:19.460Z,25.58
2022-11-28T15:53:15.031Z,24.45
2022-11-28T15:55:42.432Z,27.42
2022-11-28T15:58:15.012Z,25.70
2022-11-28T16:00:45.310Z,22.33
2022-11-28T16:03:23.287Z,26.92
2022-11-28T16:05:53.373Z,26.05
2022-11-28T16:08:48.881Z,26.60
2022-11-28T16:11:34.264Z,30.38
2022-11-28T16:14:11.086Z,27.35
2022-11-28T16:16:43.798Z,26.90
2022-11-28T16:19:36.740Z,26.73
2022-11-28T16:22:16.110Z,29.60
2022-11-28T16:24:52.267Z,27.40
2022-11-28T16:27:38.933Z,28.60
2022-11-28T16:33:56.747Z,31.40
2022-11-28T16:36:35.333Z,30.42
2022-11-28T16:39:12.234Z,27.95
2022-11-28T16:41:42.852Z,33.78
2022-11-28T16:44:14.828Z,30.90
2022-11-28T16:47:03.668Z,29.83
2022-11-28T16:49:38.872Z,33.10
2022-11-28T16:52:22.740Z,28.20
2022-11-28T16:54:54.942Z,31.95
2022-11-28T16:57:25.459Z,31.85
2022-11-28T16:59:59.024Z,36.85
2022-11-28T17:02:29.098Z,31.33
2022-11-28T17:04:57.920Z,29.70
2022-11-28T17:07:27.415Z,30.13
2022-11-28T17:09:55.397Z,30.77
2022-11-28T17:12:25.569Z,30.65
2022-11-28T17:14:59.438Z,34.97
2022-11-28T17:17:31.746Z,32.38
2022-11-28T17:20:02.820Z,28.33
2022-11-28T17:22:46.721Z,27.42
2022-11-28T17:27:45.895Z,32.15
2022-11-28T17:30:15.299Z,36.30
2022-11-28T17:32:43.968Z,38.10
2022-11-28T17:35:24.481Z,31.13
2022-11-28T17:37:53.535Z,38.08
2022-11-28T17:40:36.819Z,33.45
2022-11-28T17:43:04.451Z,33.13
2022-11-28T17:45:36.543Z,31.83
2022-11-28T17:48:04.088Z,31.33
2022-11-28T17:50:32.200Z,31.70
2022-11-28T17:52:59.650Z,28.67
2022-11-28T17:55:32.931Z,25.95
2022-11-28T17:58:00.412Z,29.35
2022-11-28T18:00:30.130Z,27.92
2022-11-28T18:02:59.370Z,32.25
2022-11-28T18:05:29.051Z,33.30
2022-11-28T18:07:57.541Z,35.60
2022-11-28T18:10:30.890Z,32.28
2022-11-28T18:12:59.383Z,35.43
2022-11-28T18:15:28.536Z,38.10
2022-11-28T18:17:59.569Z,41.80
2022-11-28T18:20:28.887Z,35.42
2022-11-28T18:22:58.620Z,36.05
2022-11-28T18:25:28.390Z,38.88
2022-11-28T18:27:56.653Z,36.65
2022-11-28T18:30:24.042Z,35.67
2022-11-28T18:32:53.726Z,45.55
2022-11-28T18:35:22.677Z,42.35
2022-11-28T18:37:50.685Z,42.03
2022-11-28T18:40:19.568Z,36.53
2022-11-28T18:42:47.240Z,37.17
2022-11-28T18:45:14.038Z,40.40
2022-11-28T18:47:41.197Z,39.38
2022-11-28T18:50:10.162Z,32.47
2022-11-28T18:52:37.268Z,31.65
2022-11-28T18:55:04.546Z,34.25
2022-11-28T18:57:34.645Z,37.63
2022-11-28T19:00:06.772Z,35.63
2022-11-28T19:02:35.508Z,35.63
2022-11-28T19:05:04.810Z,33.78
2022-11-28T19:07:33.760Z,31.58
2022-11-28T19:10:00.801Z,35.75
2022-11-28T19:12:28.695Z,36.75
2022-11-28T19:15:02.306Z,48.58
2022-11-28T19:17:30.598Z,39.92
2022-11-28T19:19:59.619Z,36.22
2022-11-28T19:22:29.119Z,35.92
2022-11-28T19:24:58.264Z,36.53
2022-11-28T19:27:26.706Z,34.83
2022-11-28T19:29:54.142Z,32.75
2022-11-28T19:32:24.566Z,31.90
2022-11-28T19:34:57.520Z,35.45
2022-11-28T19:37:25.742Z,33.80
2022-11-28T19:39:52.433Z,35.08
2022-11-28T19:42:20.243Z,41.05
2022-11-28T19:44:51.715Z,29.88
2022-11-28T19:47:18.277Z,32.92
2022-11-28T19:49:44.984Z,33.95
2022-11-28T19:52:15.850Z,33.65
2022-11-28T19:54:42.830Z,32.80
2022-11-28T19:57:11.276Z,41.67
2022-11-28T19:59:39.295Z,33.30
2022-11-28T20:02:07.801Z,32.72
2022-11-28T20:04:34.448Z,36.78
2022-11-28T20:07:03.558Z,35.42
2022-11-28T20:09:31.615Z,39.25
2022-11-28T20:12:01.008Z,35.00
2022-11-28T20:14:32.684Z,33.20
2022-11-28T20:17:01.769Z,32.92
2022-11-28T20:19:28.904Z,35.13
2022-11-28T20:21:57.799Z,35.63
2022-11-28T20:24:26.293Z,37.05
2022-11-28T20:26:57.170Z,37.38
2022-11-28T20:29:27.938Z,37.63
2022-11-28T20:31:57.584Z,41.05
2022-11-28T20:34:27.715Z,40.30
2022-11-28T20:36:59.637Z,38.65
2022-11-28T20:39:29.388Z,42.40
2022-11-28T20:42:07.553Z,37.03
2022-11-28T20:44:36.310Z,40.05
2022-11-28T20:47:05.555Z,35.92
2022-11-28T20:49:37.026Z,37.33
2022-11-28T20:52:05.686Z,34.92
2022-11-28T20:54:39.408Z,38.15
2022-11-28T20:57:21.365Z,34.75
2022-11-28T20:59:55.630Z,43.30
2022-11-28T21:02:24.722Z,37.13
2022-11-28T21:04:52.638Z,42.53
2022-11-28T21:07:20.497Z,41.03
2022-11-28T21:09:51.877Z,40.65
2022-11-28T21:12:21.283Z,36.97
2022-11-28T21:14:49.298Z,39.25
2022-11-28T21:17:17.174Z,37.08
2022-11-28T21:19:44.493Z,41.88
2022-11-28T21:22:12.610Z,35.25
2022-11-28T21:24:41.110Z,46.35
2022-11-28T21:27:09.714Z,32.40
2022-11-28T21:29:38.858Z,28.77
2022-11-28T21:32:07.443Z,31.67
2022-11-28T21:34:39.638Z,29.80
2022-11-28T21:37:07.523Z,34.70
2022-11-28T21:39:37.842Z,40.60
2022-11-28T21:42:06.772Z,40.17
2022-11-28T21:44:34.288Z,37.20
2022-11-28T21:47:05.690Z,35.45
2022-11-28T21:49:46.554Z,40.50
2022-11-28T21:52:22.631Z,32.40
2022-11-28T21:54:52.074Z,35.25
2022-11-28T21:57:20.726Z,31.17
2022-11-28T21:59:52.680Z,31.35
2022-11-28T22:02:19.919Z,30.83
2022-11-28T22:04:48.427Z,29.33
2022-11-28T22:07:18.741Z,29.63
2022-11-28T22:09:49.284Z,29.20
2022-11-28T22:12:18.436Z,28.15
2022-11-28T22:14:50.670Z,30.13
2022-11-28T22:17:17.940Z,27.00
2022-11-28T22:19:46.988Z,27.17
2022-11-28T22:22:14.817Z,27.58
2022-11-28T22:24:41.609Z,30.73
2022-11-28T22:27:11.879Z,30.23
2022-11-28T22:29:45.006Z,26.75
2022-11-28T22:34:44.920Z,26.85
2022-11-28T22:37:14.244Z,27.42
2022-11-28T22:39:41.379Z,29.60
2022-11-28T22:42:24.933Z,28.50
2022-11-28T22:44:54.765Z,26.00
2022-11-28T22:47:25.787Z,31.15
2022-11-28T22:49:52.671Z,27.30
2022-11-28T22:52:19.429Z,29.65
2022-11-28T22:54:53.007Z,28.08
2022-11-28T22:57:22.425Z,29.17
2022-11-28T22:59:51.719Z,27.60
2022-11-28T23:02:18.985Z,28.08
2022-11-28T23:04:46.982Z,25.27
2022-11-28T23:07:14.465Z,25.25
2022-11-28T23:09:41.451Z,25.17
2022-11-28T23:12:10.627Z,25.20
2022-11-28T23:14:38.770Z,24.83
2022-11-28T23:17:07.969Z,25.45
2022-11-28T23:19:37.352Z,26.50
2022-11-28T23:22:06.400Z,23.65
2022-11-28T23:24:34.603Z,27.15
2022-11-28T23:27:04.260Z,24.25
2022-11-28T23:29:32.277Z,25.58
2022-11-28T23:32:00.456Z,25.50
2022-11-28T23:34:30.764Z,24.13
2022-11-28T23:37:01.769Z,26.55
2022-11-28T23:39:30.650Z,23.23
2022-11-28T23:42:07.937Z,24.67
2022-11-28T23:44:36.361Z,26.60
2022-11-28T23:47:04.694Z,25.40
2022-11-28T23:49:32.201Z,25.27
2022-11-28T23:52:04.629Z,25.40
2022-11-28T23:54:42.013Z,24.17
2022-11-28T23:57:27.636Z,27.05
